sensor_id;sensor_type;location;lat;lon;timestamp;P1;durP1;ratioP1;P2;durP2;ratioP2
58470;SDS011;44258;51.288;12.068;2023-06-10T00:00:47;11.48;;;5.60;;
58470;SDS011;44258;51.288;12.068;2023-06-10T00:03:36;13.40;;;6.50;;
58470;SDS011;44258;51.288;12.068;2023-06-10T00:09:09;10.95;;;5.25;;
58470;SDS011;44258;51.288;12.068;2023-06-10T00:11:56;10.57;;;5.30;;
58470;SDS011;44258;51.288;12.068;2023-06-10T00:14:46;11.30;;;5.55;;
58470;SDS011;44258;51.288;12.068;2023-06-10T00:17:35;9.70;;;5.25;;
58470;SDS011;44258;51.288;12.068;2023-06-10T00:20:24;10.75;;;4.80;;
58470;SDS011;44258;51.288;12.068;2023-06-10T00:23:11;10.85;;;5.30;;
58470;SDS011;44258;51.288;12.068;2023-06-10T00:25:58;10.23;;;4.75;;
58470;SDS011;44258;51.288;12.068;2023-06-10T00:31:33;12.43;;;5.00;;
58470;SDS011;44258;51.288;12.068;2023-06-10T00:34:20;10.30;;;5.00;;
58470;SDS011;44258;51.288;12.068;2023-06-10T00:37:07;10.93;;;5.00;;
58470;SDS011;44258;51.288;12.068;2023-06-10T00:39:54;9.70;;;4.55;;
58470;SDS011;44258;51.288;12.068;2023-06-10T00:42:41;10.25;;;4.60;;
58470;SDS011;44258;51.288;12.068;2023-06-10T00:45:28;9.02;;;4.32;;
58470;SDS011;44258;51.288;12.068;2023-06-10T00:51:06;10.27;;;4.70;;
58470;SDS011;44258;51.288;12.068;2023-06-10T00:53:54;9.95;;;4.68;;
58470;SDS011;44258;51.288;12.068;2023-06-10T00:56:41;9.48;;;4.78;;
58470;SDS011;44258;51.288;12.068;2023-06-10T00:59:28;12.45;;;4.65;;
58470;SDS011;44258;51.288;12.068;2023-06-10T01:02:16;10.23;;;4.57;;
58470;SDS011;44258;51.288;12.068;2023-06-10T01:07:54;10.50;;;4.57;;
58470;SDS011;44258;51.288;12.068;2023-06-10T01:10:47;10.57;;;4.50;;
58470;SDS011;44258;51.288;12.068;2023-06-10T01:13:37;11.52;;;4.50;;
58470;SDS011;44258;51.288;12.068;2023-06-10T01:16:27;9.77;;;4.00;;
58470;SDS011;44258;51.288;12.068;2023-06-10T01:19:15;11.05;;;4.65;;
58470;SDS011;44258;51.288;12.068;2023-06-10T01:22:04;8.40;;;4.22;;
58470;SDS011;44258;51.288;12.068;2023-06-10T01:24:52;10.02;;;4.38;;
58470;SDS011;44258;51.288;12.068;2023-06-10T01:27:39;10.18;;;4.65;;
58470;SDS011;44258;51.288;12.068;2023-06-10T01:30:29;9.88;;;4.80;;
58470;SDS011;44258;51.288;12.068;2023-06-10T01:33:24;10.35;;;4.60;;
58470;SDS011;44258;51.288;12.068;2023-06-10T01:36:15;9.90;;;4.72;;
58470;SDS011;44258;51.288;12.068;2023-06-10T01:39:06;10.90;;;4.55;;
58470;SDS011;44258;51.288;12.068;2023-06-10T01:41:56;11.75;;;4.82;;
58470;SDS011;44258;51.288;12.068;2023-06-10T01:44:44;9.43;;;4.55;;
58470;SDS011;44258;51.288;12.068;2023-06-10T01:50:18;11.25;;;4.63;;
58470;SDS011;44258;51.288;12.068;2023-06-10T01:53:04;11.43;;;5.10;;
58470;SDS011;44258;51.288;12.068;2023-06-10T01:58:39;10.63;;;4.88;;
58470;SDS011;44258;51.288;12.068;2023-06-10T02:04:14;9.27;;;4.60;;
58470;SDS011;44258;51.288;12.068;2023-06-10T02:07:02;10.02;;;4.95;;
58470;SDS011;44258;51.288;12.068;2023-06-10T02:09:51;11.75;;;5.22;;
58470;SDS011;44258;51.288;12.068;2023-06-10T02:15:26;11.40;;;5.25;;
58470;SDS011;44258;51.288;12.068;2023-06-10T02:21:06;10.98;;;5.47;;
58470;SDS011;44258;51.288;12.068;2023-06-10T02:23:53;9.20;;;4.97;;
58470;SDS011;44258;51.288;12.068;2023-06-10T02:29:28;10.43;;;5.40;;
58470;SDS011;44258;51.288;12.068;2023-06-10T02:32:15;10.68;;;5.00;;
58470;SDS011;44258;51.288;12.068;2023-06-10T02:35:02;10.05;;;5.10;;
58470;SDS011;44258;51.288;12.068;2023-06-10T02:37:49;10.93;;;4.70;;
58470;SDS011;44258;51.288;12.068;2023-06-10T02:40:36;9.55;;;4.88;;
58470;SDS011;44258;51.288;12.068;2023-06-10T02:43:23;13.35;;;5.13;;
58470;SDS011;44258;51.288;12.068;2023-06-10T02:48:58;11.90;;;5.05;;
58470;SDS011;44258;51.288;12.068;2023-06-10T02:54:33;10.38;;;5.47;;
58470;SDS011;44258;51.288;12.068;2023-06-10T02:57:22;10.95;;;5.50;;
58470;SDS011;44258;51.288;12.068;2023-06-10T03:02:57;11.57;;;5.78;;
58470;SDS011;44258;51.288;12.068;2023-06-10T03:05:48;12.32;;;6.28;;
58470;SDS011;44258;51.288;12.068;2023-06-10T03:11:21;11.90;;;6.10;;
58470;SDS011;44258;51.288;12.068;2023-06-10T03:14:09;10.18;;;5.25;;
58470;SDS011;44258;51.288;12.068;2023-06-10T03:16:56;10.77;;;5.65;;
58470;SDS011;44258;51.288;12.068;2023-06-10T03:22:32;12.23;;;5.93;;
58470;SDS011;44258;51.288;12.068;2023-06-10T03:28:06;11.73;;;6.07;;
58470;SDS011;44258;51.288;12.068;2023-06-10T03:30:52;13.00;;;6.13;;
58470;SDS011;44258;51.288;12.068;2023-06-10T03:33:40;11.63;;;5.90;;
58470;SDS011;44258;51.288;12.068;2023-06-10T03:39:15;12.48;;;6.05;;
58470;SDS011;44258;51.288;12.068;2023-06-10T03:42:02;13.30;;;6.32;;
58470;SDS011;44258;51.288;12.068;2023-06-10T03:44:50;13.38;;;6.32;;
58470;SDS011;44258;51.288;12.068;2023-06-10T03:47:37;13.52;;;6.88;;
58470;SDS011;44258;51.288;12.068;2023-06-10T03:50:25;13.60;;;6.32;;
58470;SDS011;44258;51.288;12.068;2023-06-10T03:53:14;12.73;;;6.38;;
58470;SDS011;44258;51.288;12.068;2023-06-10T03:56:01;11.02;;;6.10;;
58470;SDS011;44258;51.288;12.068;2023-06-10T04:04:35;13.90;;;6.70;;
58470;SDS011;44258;51.288;12.068;2023-06-10T04:07:23;11.95;;;6.57;;
58470;SDS011;44258;51.288;12.068;2023-06-10T04:10:11;12.73;;;6.82;;
58470;SDS011;44258;51.288;12.068;2023-06-10T04:12:58;11.77;;;6.47;;
58470;SDS011;44258;51.288;12.068;2023-06-10T04:15:45;13.07;;;7.05;;
58470;SDS011;44258;51.288;12.068;2023-06-10T04:18:33;11.82;;;6.93;;
58470;SDS011;44258;51.288;12.068;2023-06-10T04:21:27;11.68;;;6.72;;
58470;SDS011;44258;51.288;12.068;2023-06-10T04:24:16;12.65;;;7.60;;
58470;SDS011;44258;51.288;12.068;2023-06-10T04:29:52;13.30;;;7.28;;
58470;SDS011;44258;51.288;12.068;2023-06-10T04:32:42;13.73;;;7.28;;
58470;SDS011;44258;51.288;12.068;2023-06-10T04:35:30;13.75;;;6.95;;
58470;SDS011;44258;51.288;12.068;2023-06-10T04:38:18;12.68;;;6.80;;
58470;SDS011;44258;51.288;12.068;2023-06-10T04:41:06;11.80;;;6.50;;
58470;SDS011;44258;51.288;12.068;2023-06-10T04:46:41;14.90;;;6.75;;
58470;SDS011;44258;51.288;12.068;2023-06-10T04:55:03;15.88;;;7.13;;
58470;SDS011;44258;51.288;12.068;2023-06-10T04:57:51;14.65;;;7.25;;
58470;SDS011;44258;51.288;12.068;2023-06-10T05:03:26;13.05;;;6.90;;
58470;SDS011;44258;51.288;12.068;2023-06-10T05:06:13;18.02;;;8.25;;
58470;SDS011;44258;51.288;12.068;2023-06-10T05:09:20;14.07;;;7.47;;
58470;SDS011;44258;51.288;12.068;2023-06-10T05:12:07;16.17;;;7.88;;
58470;SDS011;44258;51.288;12.068;2023-06-10T05:14:55;15.13;;;7.70;;
58470;SDS011;44258;51.288;12.068;2023-06-10T05:17:52;16.70;;;8.05;;
58470;SDS011;44258;51.288;12.068;2023-06-10T05:23:26;12.57;;;7.32;;
58470;SDS011;44258;51.288;12.068;2023-06-10T05:29:00;15.32;;;7.50;;
58470;SDS011;44258;51.288;12.068;2023-06-10T05:31:47;12.48;;;7.95;;
58470;SDS011;44258;51.288;12.068;2023-06-10T05:37:26;15.13;;;7.90;;
58470;SDS011;44258;51.288;12.068;2023-06-10T05:40:16;15.60;;;7.95;;
58470;SDS011;44258;51.288;12.068;2023-06-10T05:45:51;15.48;;;7.63;;
58470;SDS011;44258;51.288;12.068;2023-06-10T05:48:45;15.00;;;8.10;;
58470;SDS011;44258;51.288;12.068;2023-06-10T05:51:34;15.48;;;7.55;;
58470;SDS011;44258;51.288;12.068;2023-06-10T05:54:22;14.63;;;7.47;;
58470;SDS011;44258;51.288;12.068;2023-06-10T05:59:58;15.57;;;7.38;;
58470;SDS011;44258;51.288;12.068;2023-06-10T06:05:32;15.82;;;7.57;;
58470;SDS011;44258;51.288;12.068;2023-06-10T06:08:21;14.23;;;7.85;;
58470;SDS011;44258;51.288;12.068;2023-06-10T06:11:08;15.00;;;8.00;;
58470;SDS011;44258;51.288;12.068;2023-06-10T06:14:01;14.32;;;7.53;;
58470;SDS011;44258;51.288;12.068;2023-06-10T06:16:49;13.15;;;7.05;;
58470;SDS011;44258;51.288;12.068;2023-06-10T06:19:36;13.35;;;6.93;;
58470;SDS011;44258;51.288;12.068;2023-06-10T06:22:23;16.55;;;7.15;;
58470;SDS011;44258;51.288;12.068;2023-06-10T06:25:11;14.57;;;7.70;;
58470;SDS011;44258;51.288;12.068;2023-06-10T06:27:58;14.55;;;8.07;;
58470;SDS011;44258;51.288;12.068;2023-06-10T06:33:32;14.63;;;7.55;;
58470;SDS011;44258;51.288;12.068;2023-06-10T06:39:05;12.60;;;6.90;;
58470;SDS011;44258;51.288;12.068;2023-06-10T06:44:41;11.63;;;7.22;;
58470;SDS011;44258;51.288;12.068;2023-06-10T06:47:28;16.17;;;7.60;;
58470;SDS011;44258;51.288;12.068;2023-06-10T06:53:02;13.10;;;6.90;;
58470;SDS011;44258;51.288;12.068;2023-06-10T06:55:49;14.75;;;7.15;;
58470;SDS011;44258;51.288;12.068;2023-06-10T06:58:37;14.68;;;7.55;;
58470;SDS011;44258;51.288;12.068;2023-06-10T07:01:24;14.85;;;7.78;;
58470;SDS011;44258;51.288;12.068;2023-06-10T07:04:11;13.23;;;7.60;;
58470;SDS011;44258;51.288;12.068;2023-06-10T07:06:58;16.83;;;7.93;;
58470;SDS011;44258;51.288;12.068;2023-06-10T07:09:45;14.38;;;7.20;;
58470;SDS011;44258;51.288;12.068;2023-06-10T07:12:32;13.43;;;7.53;;
58470;SDS011;44258;51.288;12.068;2023-06-10T07:15:23;17.13;;;8.02;;
58470;SDS011;44258;51.288;12.068;2023-06-10T07:18:10;14.85;;;7.57;;
58470;SDS011;44258;51.288;12.068;2023-06-10T07:20:57;15.18;;;7.55;;
58470;SDS011;44258;51.288;12.068;2023-06-10T07:23:50;15.73;;;7.82;;
58470;SDS011;44258;51.288;12.068;2023-06-10T07:26:38;14.45;;;7.85;;
58470;SDS011;44258;51.288;12.068;2023-06-10T07:29:32;15.25;;;7.47;;
58470;SDS011;44258;51.288;12.068;2023-06-10T07:32:22;13.65;;;7.95;;
58470;SDS011;44258;51.288;12.068;2023-06-10T07:35:09;14.55;;;8.10;;
58470;SDS011;44258;51.288;12.068;2023-06-10T07:37:57;13.90;;;8.32;;
58470;SDS011;44258;51.288;12.068;2023-06-10T07:40:44;13.25;;;8.20;;
58470;SDS011;44258;51.288;12.068;2023-06-10T07:43:30;13.13;;;8.02;;
58470;SDS011;44258;51.288;12.068;2023-06-10T07:46:18;16.33;;;9.02;;
58470;SDS011;44258;51.288;12.068;2023-06-10T07:49:14;16.25;;;8.30;;
58470;SDS011;44258;51.288;12.068;2023-06-10T07:52:01;15.70;;;8.95;;
58470;SDS011;44258;51.288;12.068;2023-06-10T07:54:48;15.45;;;8.60;;
58470;SDS011;44258;51.288;12.068;2023-06-10T07:57:35;15.93;;;8.43;;
58470;SDS011;44258;51.288;12.068;2023-06-10T08:00:23;16.98;;;8.88;;
58470;SDS011;44258;51.288;12.068;2023-06-10T08:03:10;16.88;;;7.88;;
58470;SDS011;44258;51.288;12.068;2023-06-10T08:05:59;15.07;;;8.60;;
58470;SDS011;44258;51.288;12.068;2023-06-10T08:08:47;16.17;;;9.23;;
58470;SDS011;44258;51.288;12.068;2023-06-10T08:11:34;17.08;;;10.00;;
58470;SDS011;44258;51.288;12.068;2023-06-10T08:14:21;16.20;;;9.00;;
58470;SDS011;44258;51.288;12.068;2023-06-10T08:17:08;18.40;;;9.82;;
58470;SDS011;44258;51.288;12.068;2023-06-10T08:19:55;19.42;;;9.43;;
58470;SDS011;44258;51.288;12.068;2023-06-10T08:22:43;14.65;;;9.23;;
58470;SDS011;44258;51.288;12.068;2023-06-10T08:25:31;17.17;;;9.70;;
58470;SDS011;44258;51.288;12.068;2023-06-10T08:28:20;14.40;;;8.50;;
58470;SDS011;44258;51.288;12.068;2023-06-10T08:31:08;15.05;;;9.32;;
58470;SDS011;44258;51.288;12.068;2023-06-10T08:33:55;16.50;;;9.20;;
58470;SDS011;44258;51.288;12.068;2023-06-10T08:36:43;14.88;;;9.25;;
58470;SDS011;44258;51.288;12.068;2023-06-10T08:39:31;14.32;;;8.80;;
58470;SDS011;44258;51.288;12.068;2023-06-10T08:42:20;16.27;;;8.90;;
58470;SDS011;44258;51.288;12.068;2023-06-10T08:45:12;14.20;;;8.65;;
58470;SDS011;44258;51.288;12.068;2023-06-10T08:48:06;15.13;;;10.00;;
58470;SDS011;44258;51.288;12.068;2023-06-10T08:50:54;14.73;;;9.85;;
58470;SDS011;44258;51.288;12.068;2023-06-10T08:53:45;14.15;;;8.75;;
58470;SDS011;44258;51.288;12.068;2023-06-10T08:56:39;14.70;;;7.93;;
58470;SDS011;44258;51.288;12.068;2023-06-10T08:59:33;15.50;;;8.82;;
58470;SDS011;44258;51.288;12.068;2023-06-10T09:02:21;16.10;;;8.68;;
58470;SDS011;44258;51.288;12.068;2023-06-10T09:05:08;16.15;;;9.52;;
58470;SDS011;44258;51.288;12.068;2023-06-10T09:07:56;13.93;;;8.05;;
58470;SDS011;44258;51.288;12.068;2023-06-10T09:10:44;15.98;;;8.82;;
58470;SDS011;44258;51.288;12.068;2023-06-10T09:13:33;15.30;;;8.77;;
58470;SDS011;44258;51.288;12.068;2023-06-10T09:16:20;16.48;;;8.70;;
58470;SDS011;44258;51.288;12.068;2023-06-10T09:19:07;13.52;;;8.20;;
58470;SDS011;44258;51.288;12.068;2023-06-10T09:21:54;13.60;;;8.43;;
58470;SDS011;44258;51.288;12.068;2023-06-10T09:24:41;14.68;;;8.73;;
58470;SDS011;44258;51.288;12.068;2023-06-10T09:27:29;14.18;;;8.20;;
58470;SDS011;44258;51.288;12.068;2023-06-10T09:30:25;15.07;;;8.48;;
58470;SDS011;44258;51.288;12.068;2023-06-10T09:33:14;15.52;;;8.40;;
58470;SDS011;44258;51.288;12.068;2023-06-10T09:36:01;13.32;;;8.07;;
58470;SDS011;44258;51.288;12.068;2023-06-10T09:38:49;16.05;;;8.40;;
58470;SDS011;44258;51.288;12.068;2023-06-10T09:41:39;14.23;;;8.90;;
58470;SDS011;44258;51.288;12.068;2023-06-10T09:44:27;13.18;;;8.10;;
58470;SDS011;44258;51.288;12.068;2023-06-10T09:47:17;14.27;;;8.27;;
58470;SDS011;44258;51.288;12.068;2023-06-10T09:50:07;15.43;;;8.30;;
58470;SDS011;44258;51.288;12.068;2023-06-10T09:52:54;15.07;;;8.35;;
58470;SDS011;44258;51.288;12.068;2023-06-10T09:55:44;13.55;;;8.30;;
58470;SDS011;44258;51.288;12.068;2023-06-10T09:58:34;14.07;;;8.13;;
58470;SDS011;44258;51.288;12.068;2023-06-10T10:01:23;15.43;;;7.85;;
58470;SDS011;44258;51.288;12.068;2023-06-10T10:04:12;14.98;;;7.95;;
58470;SDS011;44258;51.288;12.068;2023-06-10T10:07:02;14.38;;;8.00;;
58470;SDS011;44258;51.288;12.068;2023-06-10T10:09:49;14.02;;;8.70;;
58470;SDS011;44258;51.288;12.068;2023-06-10T10:12:37;12.35;;;8.07;;
58470;SDS011;44258;51.288;12.068;2023-06-10T10:15:27;13.85;;;8.55;;
58470;SDS011;44258;51.288;12.068;2023-06-10T10:18:17;13.82;;;9.00;;
58470;SDS011;44258;51.288;12.068;2023-06-10T10:21:16;15.68;;;8.95;;
58470;SDS011;44258;51.288;12.068;2023-06-10T10:24:09;14.30;;;8.93;;
58470;SDS011;44258;51.288;12.068;2023-06-10T10:27:01;13.38;;;8.80;;
58470;SDS011;44258;51.288;12.068;2023-06-10T10:29:52;13.70;;;8.38;;
58470;SDS011;44258;51.288;12.068;2023-06-10T10:32:43;12.68;;;8.23;;
58470;SDS011;44258;51.288;12.068;2023-06-10T10:35:37;13.85;;;9.15;;
58470;SDS011;44258;51.288;12.068;2023-06-10T10:38:26;14.52;;;9.20;;
58470;SDS011;44258;51.288;12.068;2023-06-10T10:41:14;14.55;;;9.00;;
58470;SDS011;44258;51.288;12.068;2023-06-10T10:44:01;12.63;;;8.68;;
58470;SDS011;44258;51.288;12.068;2023-06-10T10:46:50;14.13;;;8.63;;
58470;SDS011;44258;51.288;12.068;2023-06-10T10:49:39;15.05;;;8.40;;
58470;SDS011;44258;51.288;12.068;2023-06-10T10:52:46;12.75;;;8.32;;
58470;SDS011;44258;51.288;12.068;2023-06-10T10:55:39;14.55;;;8.52;;
58470;SDS011;44258;51.288;12.068;2023-06-10T10:58:26;14.75;;;8.85;;
58470;SDS011;44258;51.288;12.068;2023-06-10T11:01:13;14.48;;;9.55;;
58470;SDS011;44258;51.288;12.068;2023-06-10T11:04:01;14.27;;;9.02;;
58470;SDS011;44258;51.288;12.068;2023-06-10T11:06:53;15.52;;;9.35;;
58470;SDS011;44258;51.288;12.068;2023-06-10T11:12:51;14.15;;;9.27;;
58470;SDS011;44258;51.288;12.068;2023-06-10T11:15:40;13.85;;;9.05;;
58470;SDS011;44258;51.288;12.068;2023-06-10T11:18:35;14.40;;;9.60;;
58470;SDS011;44258;51.288;12.068;2023-06-10T11:21:26;14.55;;;9.07;;
58470;SDS011;44258;51.288;12.068;2023-06-10T11:24:13;11.45;;;8.27;;
58470;SDS011;44258;51.288;12.068;2023-06-10T11:27:16;13.52;;;8.85;;
58470;SDS011;44258;51.288;12.068;2023-06-10T11:30:21;12.88;;;9.02;;
58470;SDS011;44258;51.288;12.068;2023-06-10T11:33:14;13.07;;;8.23;;
58470;SDS011;44258;51.288;12.068;2023-06-10T11:36:05;12.35;;;8.55;;
58470;SDS011;44258;51.288;12.068;2023-06-10T11:38:55;15.07;;;9.20;;
58470;SDS011;44258;51.288;12.068;2023-06-10T11:41:43;13.32;;;8.52;;
58470;SDS011;44258;51.288;12.068;2023-06-10T11:44:31;12.02;;;8.68;;
58470;SDS011;44258;51.288;12.068;2023-06-10T11:47:24;14.93;;;8.95;;
58470;SDS011;44258;51.288;12.068;2023-06-10T11:50:12;14.77;;;9.02;;
58470;SDS011;44258;51.288;12.068;2023-06-10T11:52:59;14.80;;;8.57;;
58470;SDS011;44258;51.288;12.068;2023-06-10T11:55:46;13.55;;;8.20;;
58470;SDS011;44258;51.288;12.068;2023-06-10T11:58:34;12.85;;;8.48;;
58470;SDS011;44258;51.288;12.068;2023-06-10T12:01:21;12.95;;;8.05;;
58470;SDS011;44258;51.288;12.068;2023-06-10T12:04:11;12.07;;;8.35;;
58470;SDS011;44258;51.288;12.068;2023-06-10T12:06:59;12.82;;;8.55;;
58470;SDS011;44258;51.288;12.068;2023-06-10T12:09:46;11.93;;;8.20;;
58470;SDS011;44258;51.288;12.068;2023-06-10T12:12:34;12.55;;;8.63;;
58470;SDS011;44258;51.288;12.068;2023-06-10T12:15:23;11.60;;;8.40;;
58470;SDS011;44258;51.288;12.068;2023-06-10T12:18:15;13.20;;;8.13;;
58470;SDS011;44258;51.288;12.068;2023-06-10T12:21:05;12.98;;;7.75;;
58470;SDS011;44258;51.288;12.068;2023-06-10T12:24:03;11.52;;;7.75;;
58470;SDS011;44258;51.288;12.068;2023-06-10T12:26:53;12.02;;;8.23;;
58470;SDS011;44258;51.288;12.068;2023-06-10T12:29:50;10.55;;;7.03;;
58470;SDS011;44258;51.288;12.068;2023-06-10T12:32:39;12.80;;;7.97;;
58470;SDS011;44258;51.288;12.068;2023-06-10T12:35:28;12.43;;;8.25;;
58470;SDS011;44258;51.288;12.068;2023-06-10T12:38:18;12.85;;;8.95;;
58470;SDS011;44258;51.288;12.068;2023-06-10T12:41:07;15.02;;;9.30;;
58470;SDS011;44258;51.288;12.068;2023-06-10T12:43:54;12.65;;;9.23;;
58470;SDS011;44258;51.288;12.068;2023-06-10T12:46:41;15.45;;;9.07;;
58470;SDS011;44258;51.288;12.068;2023-06-10T12:49:28;13.55;;;8.27;;
58470;SDS011;44258;51.288;12.068;2023-06-10T12:52:15;11.43;;;7.90;;
58470;SDS011;44258;51.288;12.068;2023-06-10T12:55:04;11.35;;;8.40;;
58470;SDS011;44258;51.288;12.068;2023-06-10T12:57:52;11.65;;;8.13;;
58470;SDS011;44258;51.288;12.068;2023-06-10T13:00:40;13.40;;;8.27;;
58470;SDS011;44258;51.288;12.068;2023-06-10T13:03:28;11.90;;;7.60;;
58470;SDS011;44258;51.288;12.068;2023-06-10T13:06:22;12.95;;;7.97;;
58470;SDS011;44258;51.288;12.068;2023-06-10T13:09:09;12.88;;;7.53;;
58470;SDS011;44258;51.288;12.068;2023-06-10T13:11:57;11.43;;;6.63;;
58470;SDS011;44258;51.288;12.068;2023-06-10T13:14:47;10.18;;;6.20;;
58470;SDS011;44258;51.288;12.068;2023-06-10T13:17:34;10.18;;;6.25;;
58470;SDS011;44258;51.288;12.068;2023-06-10T13:20:21;9.35;;;6.50;;
58470;SDS011;44258;51.288;12.068;2023-06-10T13:23:08;9.82;;;6.18;;
58470;SDS011;44258;51.288;12.068;2023-06-10T13:25:55;12.30;;;7.57;;
58470;SDS011;44258;51.288;12.068;2023-06-10T13:28:44;12.75;;;6.97;;
58470;SDS011;44258;51.288;12.068;2023-06-10T13:31:31;11.30;;;6.93;;
58470;SDS011;44258;51.288;12.068;2023-06-10T13:34:18;9.95;;;6.53;;
58470;SDS011;44258;51.288;12.068;2023-06-10T13:37:05;9.77;;;6.70;;
58470;SDS011;44258;51.288;12.068;2023-06-10T13:39:52;12.68;;;6.80;;
58470;SDS011;44258;51.288;12.068;2023-06-10T13:42:39;11.07;;;6.38;;
58470;SDS011;44258;51.288;12.068;2023-06-10T13:45:27;9.48;;;6.47;;
58470;SDS011;44258;51.288;12.068;2023-06-10T13:48:15;10.57;;;6.10;;
58470;SDS011;44258;51.288;12.068;2023-06-10T13:51:03;11.40;;;7.25;;
58470;SDS011;44258;51.288;12.068;2023-06-10T13:53:52;11.00;;;6.72;;
58470;SDS011;44258;51.288;12.068;2023-06-10T13:56:41;9.88;;;5.88;;
58470;SDS011;44258;51.288;12.068;2023-06-10T13:59:28;12.50;;;5.65;;
58470;SDS011;44258;51.288;12.068;2023-06-10T14:02:18;8.73;;;5.05;;
58470;SDS011;44258;51.288;12.068;2023-06-10T14:05:07;8.35;;;5.22;;
58470;SDS011;44258;51.288;12.068;2023-06-10T14:07:57;8.70;;;4.90;;
58470;SDS011;44258;51.288;12.068;2023-06-10T14:10:47;8.30;;;4.68;;
58470;SDS011;44258;51.288;12.068;2023-06-10T14:13:36;8.38;;;4.63;;
58470;SDS011;44258;51.288;12.068;2023-06-10T14:16:25;10.45;;;4.70;;
58470;SDS011;44258;51.288;12.068;2023-06-10T14:19:14;8.40;;;4.38;;
58470;SDS011;44258;51.288;12.068;2023-06-10T14:22:01;7.47;;;4.32;;
58470;SDS011;44258;51.288;12.068;2023-06-10T14:24:48;6.22;;;3.92;;
58470;SDS011;44258;51.288;12.068;2023-06-10T14:27:35;7.22;;;4.07;;
58470;SDS011;44258;51.288;12.068;2023-06-10T14:30:21;7.45;;;4.03;;
58470;SDS011;44258;51.288;12.068;2023-06-10T14:33:08;6.60;;;3.75;;
58470;SDS011;44258;51.288;12.068;2023-06-10T14:35:57;8.25;;;4.00;;
58470;SDS011;44258;51.288;12.068;2023-06-10T14:38:43;7.75;;;3.80;;
58470;SDS011;44258;51.288;12.068;2023-06-10T14:41:31;7.22;;;3.92;;
58470;SDS011;44258;51.288;12.068;2023-06-10T14:44:19;6.10;;;3.50;;
58470;SDS011;44258;51.288;12.068;2023-06-10T14:47:06;7.63;;;3.90;;
58470;SDS011;44258;51.288;12.068;2023-06-10T14:49:53;7.15;;;3.50;;
58470;SDS011;44258;51.288;12.068;2023-06-10T14:52:41;6.50;;;3.40;;
58470;SDS011;44258;51.288;12.068;2023-06-10T14:55:28;7.90;;;3.63;;
58470;SDS011;44258;51.288;12.068;2023-06-10T14:58:15;5.85;;;3.33;;
58470;SDS011;44258;51.288;12.068;2023-06-10T15:01:02;7.15;;;3.30;;
58470;SDS011;44258;51.288;12.068;2023-06-10T15:03:50;8.45;;;4.55;;
58470;SDS011;44258;51.288;12.068;2023-06-10T15:06:37;8.75;;;5.25;;
58470;SDS011;44258;51.288;12.068;2023-06-10T15:09:28;10.57;;;5.75;;
58470;SDS011;44258;51.288;12.068;2023-06-10T15:12:15;11.35;;;6.18;;
58470;SDS011;44258;51.288;12.068;2023-06-10T15:15:02;11.32;;;6.05;;
58470;SDS011;44258;51.288;12.068;2023-06-10T15:17:51;10.52;;;6.40;;
58470;SDS011;44258;51.288;12.068;2023-06-10T15:20:41;15.20;;;7.05;;
58470;SDS011;44258;51.288;12.068;2023-06-10T15:23:31;10.00;;;6.95;;
58470;SDS011;44258;51.288;12.068;2023-06-10T15:26:21;14.38;;;7.95;;
58470;SDS011;44258;51.288;12.068;2023-06-10T15:29:08;11.32;;;7.50;;
58470;SDS011;44258;51.288;12.068;2023-06-10T15:31:55;12.20;;;7.40;;
58470;SDS011;44258;51.288;12.068;2023-06-10T15:34:42;11.40;;;7.07;;
58470;SDS011;44258;51.288;12.068;2023-06-10T15:37:32;12.10;;;7.63;;
58470;SDS011;44258;51.288;12.068;2023-06-10T15:40:22;12.35;;;7.82;;
58470;SDS011;44258;51.288;12.068;2023-06-10T15:43:11;12.30;;;7.75;;
58470;SDS011;44258;51.288;12.068;2023-06-10T15:45:59;11.05;;;7.40;;
58470;SDS011;44258;51.288;12.068;2023-06-10T15:48:49;11.95;;;8.10;;
58470;SDS011;44258;51.288;12.068;2023-06-10T15:51:55;12.60;;;7.90;;
58470;SDS011;44258;51.288;12.068;2023-06-10T15:54:48;11.10;;;7.88;;
58470;SDS011;44258;51.288;12.068;2023-06-10T15:57:38;12.27;;;7.60;;
58470;SDS011;44258;51.288;12.068;2023-06-10T16:00:32;12.40;;;7.05;;
58470;SDS011;44258;51.288;12.068;2023-06-10T16:03:22;12.05;;;7.30;;
58470;SDS011;44258;51.288;12.068;2023-06-10T16:06:09;10.90;;;7.15;;
58470;SDS011;44258;51.288;12.068;2023-06-10T16:08:58;12.32;;;7.40;;
58470;SDS011;44258;51.288;12.068;2023-06-10T16:11:45;12.00;;;7.57;;
58470;SDS011;44258;51.288;12.068;2023-06-10T16:14:34;10.82;;;7.22;;
58470;SDS011;44258;51.288;12.068;2023-06-10T16:17:30;11.77;;;7.32;;
58470;SDS011;44258;51.288;12.068;2023-06-10T16:20:20;12.20;;;8.07;;
58470;SDS011;44258;51.288;12.068;2023-06-10T16:23:07;13.45;;;8.10;;
58470;SDS011;44258;51.288;12.068;2023-06-10T16:25:54;12.43;;;7.55;;
58470;SDS011;44258;51.288;12.068;2023-06-10T16:28:41;13.10;;;7.60;;
58470;SDS011;44258;51.288;12.068;2023-06-10T16:34:49;14.48;;;8.32;;
58470;SDS011;44258;51.288;12.068;2023-06-10T16:37:36;13.45;;;8.30;;
58470;SDS011;44258;51.288;12.068;2023-06-10T16:40:24;13.70;;;8.30;;
58470;SDS011;44258;51.288;12.068;2023-06-10T16:43:16;12.05;;;7.82;;
58470;SDS011;44258;51.288;12.068;2023-06-10T16:46:03;11.70;;;7.82;;
58470;SDS011;44258;51.288;12.068;2023-06-10T16:48:58;12.98;;;8.23;;
58470;SDS011;44258;51.288;12.068;2023-06-10T16:51:47;12.65;;;8.38;;
58470;SDS011;44258;51.288;12.068;2023-06-10T16:54:35;12.27;;;7.93;;
58470;SDS011;44258;51.288;12.068;2023-06-10T16:57:22;15.48;;;8.60;;
58470;SDS011;44258;51.288;12.068;2023-06-10T17:00:09;11.77;;;7.97;;
58470;SDS011;44258;51.288;12.068;2023-06-10T17:02:57;13.05;;;8.02;;
58470;SDS011;44258;51.288;12.068;2023-06-10T17:05:46;12.48;;;7.70;;
58470;SDS011;44258;51.288;12.068;2023-06-10T17:08:44;12.65;;;8.32;;
58470;SDS011;44258;51.288;12.068;2023-06-10T17:11:31;12.95;;;8.55;;
58470;SDS011;44258;51.288;12.068;2023-06-10T17:14:19;15.35;;;8.18;;
58470;SDS011;44258;51.288;12.068;2023-06-10T17:17:09;15.60;;;8.77;;
58470;SDS011;44258;51.288;12.068;2023-06-10T17:19:56;13.70;;;8.05;;
58470;SDS011;44258;51.288;12.068;2023-06-10T17:22:43;12.57;;;8.35;;
58470;SDS011;44258;51.288;12.068;2023-06-10T17:25:37;14.77;;;8.57;;
58470;SDS011;44258;51.288;12.068;2023-06-10T17:28:24;13.88;;;7.97;;
58470;SDS011;44258;51.288;12.068;2023-06-10T17:31:13;20.98;;;13.68;;
58470;SDS011;44258;51.288;12.068;2023-06-10T17:34:01;17.85;;;12.02;;
58470;SDS011;44258;51.288;12.068;2023-06-10T17:37:06;13.38;;;8.70;;
58470;SDS011;44258;51.288;12.068;2023-06-10T17:39:53;12.45;;;8.77;;
58470;SDS011;44258;51.288;12.068;2023-06-10T17:42:48;13.90;;;8.57;;
58470;SDS011;44258;51.288;12.068;2023-06-10T17:45:36;12.27;;;7.63;;
58470;SDS011;44258;51.288;12.068;2023-06-10T17:48:23;12.95;;;8.57;;
58470;SDS011;44258;51.288;12.068;2023-06-10T17:51:28;12.93;;;7.82;;
58470;SDS011;44258;51.288;12.068;2023-06-10T17:55:06;11.98;;;8.50;;
58470;SDS011;44258;51.288;12.068;2023-06-10T17:57:54;14.75;;;8.40;;
58470;SDS011;44258;51.288;12.068;2023-06-10T18:00:41;12.48;;;8.00;;
58470;SDS011;44258;51.288;12.068;2023-06-10T18:03:29;13.15;;;8.40;;
58470;SDS011;44258;51.288;12.068;2023-06-10T18:06:16;14.05;;;8.05;;
58470;SDS011;44258;51.288;12.068;2023-06-10T18:09:04;12.82;;;8.77;;
58470;SDS011;44258;51.288;12.068;2023-06-10T18:12:02;12.70;;;8.68;;